Terminal Aerodrome Forecast
Issued by NWS Jackson, KY

Home | Current Version | Previous Version | Text Only | Print | Product List | Glossary On
Versions: 1 2 3 4 5 6 7 8 9 10 11 12 13 14 15 16 17 18 19
000
FTUS43 KJKL 070532
TAFJKL
TAF
KJKL 070532Z 0706/0806 00000KT 6SM BR SKC
     FM070900 00000KT 4SM BR SKC
     FM071300 00000KT P6SM FEW030 SCT200
     FM071800 VRB03KT P6SM VCSH BKN035 OVC200
     FM080000 00000KT 6SM BR OVC250=

USA.gov is the U.S. government's official web portal to all federal, state and local government web resources and services.